Time;durP1;ratioP1;P1;durP2;ratioP2;P2;SDS_P1;SDS_P2;PMS_P1;PMS_P2;Temp;Humidity;BMP_temperature;BMP_pressure;BME280_temperature;BME280_humidity;BME280_pressure;Samples;Min_cycle;Max_cycle;Signal;HPM_P1;HPM_P2
2023/06/17 00:02:55;;;;;;;;;;;;;;;;;;137623;1275;22310;-82
2023/06/17 00:05:56;;;;;;;;;;;;;;;;;;137611;1275;22273;-82
2023/06/17 00:08:59;;;;;;;;;;;;;;;;;;137612;1275;22267;-83
2023/06/17 00:12:02;;;;;;;;;;;;;;;;;;137594;1275;22275;-82
2023/06/17 00:15:04;;;;;;;;;;;;;;;;;;137611;1275;22836;-83
2023/06/17 00:18:05;;;;;;;;;;;;;;;;;;137600;1275;22241;-84
2023/06/17 00:21:08;;;;;;;;;;;;;;;;;;137650;1275;22262;-85
2023/06/17 00:24:12;;;;;;;;;;;;;;;;;;137559;1275;22676;-83
2023/06/17 00:27:13;;;;;;;;;;;;;;;;;;137585;1275;22678;-83
2023/06/17 00:30:14;;;;;;;;;;;;;;;;;;137595;1275;22260;-83
2023/06/17 00:33:15;;;;;;;;;;;;;;;;;;137630;1275;22287;-81
2023/06/17 00:36:16;;;;;;;;;;;;;;;;;;137604;1275;22347;-81
2023/06/17 00:39:17;;;;;;;;;;;;;;;;;;137639;1275;22286;-81
2023/06/17 00:42:19;;;;;;;;;;;;;;;;;;137596;1275;22725;-81
2023/06/17 00:45:20;;;;;;;;;;;;;;;;;;137626;1275;22363;-81
2023/06/17 00:48:21;;;;;;;;;;;;;;;;;;137592;1275;22264;-81
2023/06/17 00:51:22;;;;;;;;;;;;;;;;;;137564;1275;22257;-81
2023/06/17 00:54:24;;;;;;;;;;;;;;;;;;137584;1275;22753;-81
2023/06/17 00:57:25;;;;;;;;;;;;;;;;;;137560;1275;22263;-82
2023/06/17 01:00:26;;;;;;;;;;;;;;;;;;137606;1275;22268;-80
2023/06/17 01:03:29;;;;;;;;;;;;;;;;;;137647;1275;22688;-82
2023/06/17 01:06:33;;;;;;;;;;;;;;;;;;137602;1275;22290;-81
2023/06/17 01:09:34;;;;;;;;;;;;;;;;;;137596;1275;22735;-81
2023/06/17 01:12:35;;;;;;;;;;;;;;;;;;137592;1275;22184;-82
2023/06/17 01:15:36;;;;;;;;;;;;;;;;;;137581;1275;22381;-82
2023/06/17 01:18:40;;;;;;;;;;;;;;;;;;137652;1275;22291;-81
2023/06/17 01:21:42;;;;;;;;;;;;;;;;;;137653;1275;22290;-84
2023/06/17 01:24:43;;;;;;;;;;;;;;;;;;137599;1275;22667;-81
2023/06/17 01:27:44;;;;;;;;;;;;;;;;;;137654;1275;22764;-82
2023/06/17 01:30:45;;;;;;;;;;;;;;;;;;137635;1275;22287;-82
2023/06/17 01:33:46;;;;;;;;;;;;;;;;;;137580;1275;22305;-82
2023/06/17 01:36:47;;;;;;;;;;;;;;;;;;137593;1275;22266;-81
2023/06/17 01:39:48;;;;;;;;;;;;;;;;;;137648;1275;22210;-81
2023/06/17 01:42:49;;;;;;;;;;;;;;;;;;137637;1275;22268;-82
2023/06/17 01:45:50;;;;;;;;;;;;;;;;;;137675;1275;22275;-82
2023/06/17 01:52:22;;;;;;;;;;;;;;;;;;133444;1311;544090;-82
2023/06/17 01:55:25;;;;;;;;;;;;;;;;;;136538;1285;22629;-81
2023/06/17 01:58:27;;;;;;;;;;;;;;;;;;136350;1285;22589;-82
2023/06/17 02:01:30;;;;;;;;;;;;;;;;;;136105;1285;22530;-82
2023/06/17 02:04:32;;;;;;;;;;;;;;;;;;136344;1278;150369;-82
2023/06/17 02:07:35;;;;;;;;;;;;;;;;;;137063;1278;22540;-82
2023/06/17 02:10:37;;;;;;;;;;;;;;;;;;136608;1279;22523;-82
2023/06/17 02:13:40;;;;;;;;;;;;;;;;;;136487;1279;22520;-81
2023/06/17 02:16:42;;;;;;;;;;;;;;;;;;136774;1279;25320;-84
2023/06/17 02:19:45;;;;;;;;;;;;;;;;;;136754;1278;22518;-80
2023/06/17 02:22:47;;;;;;;;;;;;;;;;;;136510;1278;22566;-81
2023/06/17 02:25:49;;;;;;;;;;;;;;;;;;136652;1278;25320;-81
2023/06/17 02:28:52;;;;;;;;;;;;;;;;;;136915;1279;22502;-82
2023/06/17 02:31:55;;;;;;;;;;;;;;;;;;136741;1279;23052;-83
2023/06/17 02:34:57;;;;;;;;;;;;;;;;;;136812;1278;22563;-82
2023/06/17 02:38:00;;;;;;;;;;;;;;;;;;137060;1278;22324;-81
2023/06/17 02:41:02;;;;;;;;;;;;;;;;;;136785;1279;22472;-82
2023/06/17 02:44:05;;;;;;;;;;;;;;;;;;136607;1275;22544;-82
2023/06/17 02:47:07;;;;;;;;;;;;;;;;;;136910;1278;24417;-82
2023/06/17 02:50:09;;;;;;;;;;;;;;;;;;136683;1279;22977;-82
2023/06/17 02:53:12;;;;;;;;;;;;;;;;;;137084;1278;22290;-82
2023/06/17 02:56:14;;;;;;;;;;;;;;;;;;136953;1278;22600;-82
2023/06/17 02:59:17;;;;;;;;;;;;;;;;;;136996;1278;22499;-82
2023/06/17 03:02:19;;;;;;;;;;;;;;;;;;137059;1279;22545;-82
2023/06/17 03:05:24;;;;;;;;;;;;;;;;;;137045;1279;22512;-83
2023/06/17 03:08:26;;;;;;;;;;;;;;;;;;136963;1279;22605;-81
2023/06/17 03:11:31;;;;;;;;;;;;;;;;;;137069;1279;22943;-81
2023/06/17 03:14:33;;;;;;;;;;;;;;;;;;137027;1279;22520;-81
2023/06/17 03:17:37;;;;;;;;;;;;;;;;;;137036;1279;22337;-80
2023/06/17 03:20:40;;;;;;;;;;;;;;;;;;137003;1279;22504;-79
2023/06/17 03:23:42;;;;;;;;;;;;;;;;;;136964;1279;22603;-80
2023/06/17 03:26:45;;;;;;;;;;;;;;;;;;137051;1279;22516;-81
2023/06/17 03:29:49;;;;;;;;;;;;;;;;;;137605;1272;22528;-81
2023/06/17 03:32:53;;;;;;;;;;;;;;;;;;137640;1272;22516;-80
2023/06/17 03:35:58;;;;;;;;;;;;;;;;;;137693;1272;22808;-80
2023/06/17 03:39:00;;;;;;;;;;;;;;;;;;137622;1272;22505;-81
2023/06/17 03:42:03;;;;;;;;;;;;;;;;;;137601;1272;22504;-82
2023/06/17 03:45:05;;;;;;;;;;;;;;;;;;137536;1272;22567;-82
2023/06/17 03:48:11;;;;;;;;;;;;;;;;;;137659;1272;22504;-80
2023/06/17 03:51:13;;;;;;;;;;;;;;;;;;137600;1272;22498;-81
2023/06/17 03:54:16;;;;;;;;;;;;;;;;;;137514;1272;22508;-81
2023/06/17 03:57:18;;;;;;;;;;;;;;;;;;137627;1272;22940;-81
2023/06/17 04:00:21;;;;;;;;;;;;;;;;;;137669;1272;22568;-82
2023/06/17 04:03:25;;;;;;;;;;;;;;;;;;137645;1272;22497;-82
2023/06/17 04:06:27;;;;;;;;;;;;;;;;;;137623;1271;22546;-82
2023/06/17 04:09:30;;;;;;;;;;;;;;;;;;137733;1272;22369;-84
2023/06/17 04:12:32;;;;;;;;;;;;;;;;;;137675;1272;23233;-81
2023/06/17 04:15:35;;;;;;;;;;;;;;;;;;137629;1272;22438;-82
2023/06/17 04:18:37;;;;;;;;;;;;;;;;;;137598;1271;22500;-78
2023/06/17 04:21:40;;;;;;;;;;;;;;;;;;137659;1272;22395;-79
2023/06/17 04:24:42;;;;;;;;;;;;;;;;;;137627;1272;22492;-81
2023/06/17 04:27:53;;;;;;;;;;;;;;;;;;137644;1272;22399;-80
2023/06/17 04:30:59;;;;;;;;;;;;;;;;;;137701;1272;22272;-82
2023/06/17 04:34:01;;;;;;;;;;;;;;;;;;137678;1272;22310;-82
2023/06/17 04:37:03;;;;;;;;;;;;;;;;;;137644;1271;22383;-82
2023/06/17 04:40:06;;;;;;;;;;;;;;;;;;137618;1271;22327;-81
2023/06/17 04:43:09;;;;;;;;;;;;;;;;;;137626;1272;22418;-80
2023/06/17 04:46:12;;;;;;;;;;;;;;;;;;137633;1272;22335;-81
2023/06/17 04:49:15;;;;;;;;;;;;;;;;;;137642;1272;22363;-82
2023/06/17 04:52:19;;;;;;;;;;;;;;;;;;137646;1272;22428;-83
2023/06/17 04:55:21;;;;;;;;;;;;;;;;;;137657;1272;22528;-82
2023/06/17 04:58:24;;;;;;;;;;;;;;;;;;137713;1272;22273;-83
2023/06/17 05:01:26;;;;;;;;;;;;;;;;;;137663;1272;22362;-82
2023/06/17 05:04:29;;;;;;;;;;;;;;;;;;137666;1271;22301;-82
2023/06/17 05:07:31;;;;;;;;;;;;;;;;;;137711;1271;22439;-81
2023/06/17 05:10:34;;;;;;;;;;;;;;;;;;137687;1272;22343;-82
2023/06/17 05:13:36;;;;;;;;;;;;;;;;;;137668;1271;22326;-82
2023/06/17 05:16:39;;;;;;;;;;;;;;;;;;137724;1272;22504;-82
2023/06/17 05:19:41;;;;;;;;;;;;;;;;;;137553;1271;22576;-80
2023/06/17 05:22:44;;;;;;;;;;;;;;;;;;137556;1272;22505;-80
2023/06/17 05:25:46;;;;;;;;;;;;;;;;;;137675;1272;22791;-81
2023/06/17 05:28:48;;;;;;;;;;;;;;;;;;137723;1272;22398;-81
2023/06/17 05:31:51;;;;;;;;;;;;;;;;;;137508;1272;22483;-79
2023/06/17 05:34:56;;;;;;;;;;;;;;;;;;137620;1272;22469;-81
2023/06/17 05:37:58;;;;;;;;;;;;;;;;;;137622;1272;22865;-80
2023/06/17 05:41:01;;;;;;;;;;;;;;;;;;137621;1272;22502;-81
2023/06/17 05:44:03;;;;;;;;;;;;;;;;;;137510;1268;22508;-81
2023/06/17 05:47:06;;;;;;;;;;;;;;;;;;137419;1272;22495;-80
2023/06/17 05:50:08;;;;;;;;;;;;;;;;;;137239;1272;22695;-80
2023/06/17 05:53:11;;;;;;;;;;;;;;;;;;137664;1272;22765;-80
2023/06/17 05:56:13;;;;;;;;;;;;;;;;;;137706;1272;22324;-81
2023/06/17 05:59:16;;;;;;;;;;;;;;;;;;137705;1272;22268;-80
2023/06/17 06:02:18;;;;;;;;;;;;;;;;;;137683;1271;22322;-80
2023/06/17 06:05:20;;;;;;;;;;;;;;;;;;137663;1272;22334;-80
2023/06/17 06:08:23;;;;;;;;;;;;;;;;;;137671;1272;22287;-79
2023/06/17 06:11:26;;;;;;;;;;;;;;;;;;137635;1272;22313;-80
2023/06/17 06:14:29;;;;;;;;;;;;;;;;;;137613;1271;22252;-81
2023/06/17 06:17:31;;;;;;;;;;;;;;;;;;137639;1272;22355;-80
2023/06/17 06:20:34;;;;;;;;;;;;;;;;;;137605;1272;22385;-80
2023/06/17 06:23:36;;;;;;;;;;;;;;;;;;137643;1272;22318;-80
2023/06/17 06:26:39;;;;;;;;;;;;;;;;;;137651;1272;22277;-82
2023/06/17 06:29:41;;;;;;;;;;;;;;;;;;137608;1272;22346;-80
2023/06/17 06:32:44;;;;;;;;;;;;;;;;;;137609;1271;22468;-80
2023/06/17 06:35:46;;;;;;;;;;;;;;;;;;137591;1271;22332;-79
2023/06/17 06:38:50;;;;;;;;;;;;;;;;;;137683;1272;22333;-79
2023/06/17 06:41:52;;;;;;;;;;;;;;;;;;137671;1271;22328;-80
2023/06/17 06:44:55;;;;;;;;;;;;;;;;;;137657;1271;22671;-80
2023/06/17 06:47:57;;;;;;;;;;;;;;;;;;137707;1270;22292;-79
2023/06/17 06:51:01;;;;;;;;;;;;;;;;;;137690;1272;22540;-81
2023/06/17 06:54:03;;;;;;;;;;;;;;;;;;137671;1272;22483;-82
2023/06/17 06:57:06;;;;;;;;;;;;;;;;;;137705;1272;22722;-82
2023/06/17 07:00:09;;;;;;;;;;;;;;;;;;137665;1272;22485;-81
2023/06/17 07:03:11;;;;;;;;;;;;;;;;;;137672;1268;22345;-82
2023/06/17 07:06:14;;;;;;;;;;;;;;;;;;137709;1272;22332;-81
2023/06/17 07:09:17;;;;;;;;;;;;;;;;;;137696;1272;22265;-82
2023/06/17 07:12:19;;;;;;;;;;;;;;;;;;137656;1272;22361;-83
2023/06/17 07:15:22;;;;;;;;;;;;;;;;;;137727;1272;22696;-83
2023/06/17 07:18:24;;;;;;;;;;;;;;;;;;137554;1271;22551;-82
2023/06/17 07:21:27;;;;;;;;;;;;;;;;;;137702;1272;22945;-82
2023/06/17 07:24:29;;;;;;;;;;;;;;;;;;137679;1271;22395;-83
2023/06/17 07:27:32;;;;;;;;;;;;;;;;;;137707;1272;22380;-82
2023/06/17 07:30:34;;;;;;;;;;;;;;;;;;137700;1272;22693;-81
2023/06/17 07:33:37;;;;;;;;;;;;;;;;;;137657;1272;22726;-83
2023/06/17 07:36:39;;;;;;;;;;;;;;;;;;137676;1272;22290;-83
2023/06/17 07:39:42;;;;;;;;;;;;;;;;;;137621;1272;22571;-84
2023/06/17 07:42:44;;;;;;;;;;;;;;;;;;137684;1272;22829;-83
2023/06/17 07:45:48;;;;;;;;;;;;;;;;;;137552;1272;22487;-83
2023/06/17 07:48:50;;;;;;;;;;;;;;;;;;137661;1272;22555;-82
2023/06/17 07:51:53;;;;;;;;;;;;;;;;;;137703;1272;22906;-84
2023/06/17 07:54:55;;;;;;;;;;;;;;;;;;137396;1272;22537;-84
2023/06/17 07:57:58;;;;;;;;;;;;;;;;;;137694;1272;22495;-82
2023/06/17 08:01:02;;;;;;;;;;;;;;;;;;137696;1272;22485;-82
2023/06/17 08:04:05;;;;;;;;;;;;;;;;;;137632;1272;22515;-82
2023/06/17 08:07:07;;;;;;;;;;;;;;;;;;137723;1272;22886;-82
2023/06/17 08:10:10;;;;;;;;;;;;;;;;;;137696;1271;22311;-83
2023/06/17 08:13:12;;;;;;;;;;;;;;;;;;137663;1271;22322;-84
2023/06/17 08:16:15;;;;;;;;;;;;;;;;;;137484;1272;22615;-84
2023/06/17 08:19:17;;;;;;;;;;;;;;;;;;137700;1271;22555;-84
2023/06/17 08:22:21;;;;;;;;;;;;;;;;;;137711;1272;22570;-85
2023/06/17 08:25:24;;;;;;;;;;;;;;;;;;137668;1272;22535;-83
2023/06/17 08:28:27;;;;;;;;;;;;;;;;;;137737;1272;22274;-83
2023/06/17 08:31:30;;;;;;;;;;;;;;;;;;137609;1272;22858;-83
2023/06/17 08:34:35;;;;;;;;;;;;;;;;;;137703;1272;22365;-84
2023/06/17 08:37:37;;;;;;;;;;;;;;;;;;137700;1272;22297;-83
2023/06/17 08:40:40;;;;;;;;;;;;;;;;;;137680;1272;22728;-84
2023/06/17 08:43:42;;;;;;;;;;;;;;;;;;137687;1272;22358;-84
2023/06/17 08:46:45;;;;;;;;;;;;;;;;;;137746;1272;22434;-84
2023/06/17 08:49:47;;;;;;;;;;;;;;;;;;137736;1272;23008;-84
2023/06/17 08:52:50;;;;;;;;;;;;;;;;;;137727;1272;22317;-84
2023/06/17 08:55:52;;;;;;;;;;;;;;;;;;137725;1272;22280;-84
2023/06/17 08:58:55;;;;;;;;;;;;;;;;;;137678;1269;22289;-84
2023/06/17 09:01:57;;;;;;;;;;;;;;;;;;137718;1264;22335;-84
2023/06/17 09:05:02;;;;;;;;;;;;;;;;;;137732;1272;22402;-84
2023/06/17 09:08:04;;;;;;;;;;;;;;;;;;137730;1272;22540;-83
2023/06/17 09:11:07;;;;;;;;;;;;;;;;;;137690;1272;22295;-84
2023/06/17 09:14:09;;;;;;;;;;;;;;;;;;137682;1272;22810;-82
2023/06/17 09:17:13;;;;;;;;;;;;;;;;;;137642;1272;22284;-82
2023/06/17 09:20:16;;;;;;;;;;;;;;;;;;137647;1271;22554;-83
2023/06/17 09:23:19;;;;;;;;;;;;;;;;;;137677;1272;22394;-83
2023/06/17 09:26:21;;;;;;;;;;;;;;;;;;137651;1271;22802;-85
2023/06/17 09:29:24;;;;;;;;;;;;;;;;;;137671;1272;22277;-84
2023/06/17 09:32:26;;;;;;;;;;;;;;;;;;137656;1272;22676;-83
2023/06/17 09:35:29;;;;;;;;;;;;;;;;;;137699;1272;22402;-83
2023/06/17 09:38:31;;;;;;;;;;;;;;;;;;137665;1272;22330;-82
2023/06/17 09:41:34;;;;;;;;;;;;;;;;;;137695;1272;22361;-83
2023/06/17 09:44:36;;;;;;;;;;;;;;;;;;137662;1272;23046;-84
2023/06/17 09:47:39;;;;;;;;;;;;;;;;;;137608;1271;22518;-83
2023/06/17 09:50:42;;;;;;;;;;;;;;;;;;137648;1271;22491;-84
2023/06/17 09:53:47;;;;;;;;;;;;;;;;;;137631;1271;22538;-84
2023/06/17 09:56:50;;;;;;;;;;;;;;;;;;137710;1272;22415;-83
2023/06/17 09:59:54;;;;;;;;;;;;;;;;;;137700;1272;22321;-85
2023/06/17 10:02:57;;;;;;;;;;;;;;;;;;137518;1272;22565;-84
2023/06/17 10:06:00;;;;;;;;;;;;;;;;;;137710;1271;22276;-83
2023/06/17 10:09:02;;;;;;;;;;;;;;;;;;137658;1271;22316;-84
2023/06/17 10:12:08;;;;;;;;;;;;;;;;;;137704;1272;22791;-84
2023/06/17 10:15:10;;;;;;;;;;;;;;;;;;137701;1271;22342;-85
2023/06/17 10:18:13;;;;;;;;;;;;;;;;;;137703;1271;22506;-85
2023/06/17 10:21:16;;;;;;;;;;;;;;;;;;137257;1259;22562;-85
2023/06/17 10:24:18;;;;;;;;;;;;;;;;;;137490;1271;22574;-85
2023/06/17 10:27:22;;;;;;;;;;;;;;;;;;137551;1272;22829;-84
2023/06/17 10:30:25;;;;;;;;;;;;;;;;;;137679;1264;22478;-85
2023/06/17 10:33:28;;;;;;;;;;;;;;;;;;137688;1271;22287;-84
2023/06/17 10:36:31;;;;;;;;;;;;;;;;;;137721;1271;22386;-84
2023/06/17 10:39:34;;;;;;;;;;;;;;;;;;137706;1271;22340;-85
2023/06/17 10:42:36;;;;;;;;;;;;;;;;;;137729;1271;22300;-84
2023/06/17 10:45:39;;;;;;;;;;;;;;;;;;137645;1271;22290;-83
2023/06/17 10:48:47;;;;;;;;;;;;;;;;;;137598;1271;22820;-85
2023/06/17 10:51:51;;;;;;;;;;;;;;;;;;137410;1271;22575;-85
2023/06/17 10:55:02;;;;;;;;;;;;;;;;;;137438;1271;22535;-84
2023/06/17 10:58:05;;;;;;;;;;;;;;;;;;137691;1271;22412;-86
2023/06/17 11:01:08;;;;;;;;;;;;;;;;;;137722;1271;22482;-85
2023/06/17 11:04:12;;;;;;;;;;;;;;;;;;137685;1272;22369;-84
2023/06/17 11:07:15;;;;;;;;;;;;;;;;;;137752;1271;22259;-84
2023/06/17 11:10:18;;;;;;;;;;;;;;;;;;137638;1272;22516;-84
2023/06/17 11:13:21;;;;;;;;;;;;;;;;;;137636;1271;22488;-84
2023/06/17 11:16:24;;;;;;;;;;;;;;;;;;137702;1272;22513;-85
2023/06/17 11:19:27;;;;;;;;;;;;;;;;;;137682;1270;22869;-84
2023/06/17 11:22:29;;;;;;;;;;;;;;;;;;137712;1272;22315;-84
2023/06/17 11:25:32;;;;;;;;;;;;;;;;;;137448;1271;22563;-84
2023/06/17 11:28:35;;;;;;;;;;;;;;;;;;137726;1272;22338;-84
2023/06/17 11:31:39;;;;;;;;;;;;;;;;;;137269;1272;22506;-84
2023/06/17 11:34:45;;;;;;;;;;;;;;;;;;136937;1268;22519;-85
2023/06/17 11:37:49;;;;;;;;;;;;;;;;;;137635;1272;22466;-85
2023/06/17 11:40:52;;;;;;;;;;;;;;;;;;137530;1272;22914;-83
2023/06/17 11:43:55;;;;;;;;;;;;;;;;;;137484;1272;22871;-82
2023/06/17 11:46:58;;;;;;;;;;;;;;;;;;137674;1268;22494;-83
2023/06/17 11:50:00;;;;;;;;;;;;;;;;;;137641;1264;22489;-85
2023/06/17 11:53:03;;;;;;;;;;;;;;;;;;137700;1271;22326;-83
2023/06/17 11:56:09;;;;;;;;;;;;;;;;;;137553;1272;23314;-83
2023/06/17 11:59:12;;;;;;;;;;;;;;;;;;137303;1272;22570;-84
2023/06/17 12:02:15;;;;;;;;;;;;;;;;;;137474;1272;22527;-83
2023/06/17 12:05:18;;;;;;;;;;;;;;;;;;137470;1272;22531;-84
2023/06/17 12:08:20;;;;;;;;;;;;;;;;;;137001;1271;22914;-87
2023/06/17 12:11:26;;;;;;;;;;;;;;;;;;137677;1271;22298;-83
2023/06/17 12:14:29;;;;;;;;;;;;;;;;;;137340;1271;22576;-83
2023/06/17 12:17:36;;;;;;;;;;;;;;;;;;137615;1272;22506;-85
2023/06/17 12:20:39;;;;;;;;;;;;;;;;;;137694;1271;22891;-86
2023/06/17 12:23:41;;;;;;;;;;;;;;;;;;137279;1256;22535;-86
2023/06/17 12:26:44;;;;;;;;;;;;;;;;;;137223;1272;22528;-85
2023/06/17 12:29:47;;;;;;;;;;;;;;;;;;137303;1271;22557;-85
2023/06/17 12:32:50;;;;;;;;;;;;;;;;;;137434;1271;22538;-83
2023/06/17 12:35:54;;;;;;;;;;;;;;;;;;137601;1271;22515;-85
2023/06/17 12:38:56;;;;;;;;;;;;;;;;;;137538;1272;22532;-84
2023/06/17 12:41:59;;;;;;;;;;;;;;;;;;137680;1271;22490;-84
2023/06/17 12:45:02;;;;;;;;;;;;;;;;;;137700;1271;22513;-84
2023/06/17 12:48:05;;;;;;;;;;;;;;;;;;137471;1271;22874;-85
2023/06/17 12:51:11;;;;;;;;;;;;;;;;;;137496;1264;22994;-86
2023/06/17 12:54:17;;;;;;;;;;;;;;;;;;137293;1272;24132;-84
2023/06/17 12:57:20;;;;;;;;;;;;;;;;;;137287;1271;22515;-85
2023/06/17 13:00:22;;;;;;;;;;;;;;;;;;137483;1271;22518;-83
2023/06/17 13:03:25;;;;;;;;;;;;;;;;;;137048;1262;22644;-84
2023/06/17 13:06:28;;;;;;;;;;;;;;;;;;137644;1271;22525;-84
2023/06/17 13:09:30;;;;;;;;;;;;;;;;;;137733;1271;22278;-84
2023/06/17 13:12:33;;;;;;;;;;;;;;;;;;137626;1272;22620;-84
2023/06/17 13:15:36;;;;;;;;;;;;;;;;;;137494;1271;22515;-83
2023/06/17 13:18:38;;;;;;;;;;;;;;;;;;137448;1271;22547;-84
2023/06/17 13:21:41;;;;;;;;;;;;;;;;;;137697;1271;22273;-84
2023/06/17 13:24:43;;;;;;;;;;;;;;;;;;137688;1271;22773;-85
2023/06/17 13:27:46;;;;;;;;;;;;;;;;;;137735;1271;22313;-86
2023/06/17 13:30:49;;;;;;;;;;;;;;;;;;137729;1272;22416;-85
2023/06/17 13:33:52;;;;;;;;;;;;;;;;;;137681;1272;22489;-84
2023/06/17 13:36:54;;;;;;;;;;;;;;;;;;137567;1271;22511;-85
2023/06/17 13:39:59;;;;;;;;;;;;;;;;;;137741;1272;22292;-85
2023/06/17 13:43:03;;;;;;;;;;;;;;;;;;137683;1272;22475;-84
2023/06/17 13:46:06;;;;;;;;;;;;;;;;;;137716;1271;22378;-85
2023/06/17 13:49:08;;;;;;;;;;;;;;;;;;137721;1271;22777;-85
2023/06/17 13:52:11;;;;;;;;;;;;;;;;;;137714;1271;22964;-85
2023/06/17 13:55:14;;;;;;;;;;;;;;;;;;137555;1272;22508;-84
2023/06/17 13:58:19;;;;;;;;;;;;;;;;;;137594;1272;22509;-86
2023/06/17 14:01:23;;;;;;;;;;;;;;;;;;137408;1270;22552;-84
2023/06/17 14:04:26;;;;;;;;;;;;;;;;;;135529;1271;2747615;-84
2023/06/17 14:07:28;;;;;;;;;;;;;;;;;;137718;1272;22545;-85
2023/06/17 14:10:31;;;;;;;;;;;;;;;;;;137780;1272;22349;-86
2023/06/17 14:13:33;;;;;;;;;;;;;;;;;;137798;1271;22974;-85
2023/06/17 14:16:36;;;;;;;;;;;;;;;;;;137449;1272;22533;-85
2023/06/17 14:19:38;;;;;;;;;;;;;;;;;;137632;1272;22591;-86
2023/06/17 14:22:41;;;;;;;;;;;;;;;;;;137514;1271;22494;-84
2023/06/17 14:25:49;;;;;;;;;;;;;;;;;;137412;1271;22550;-85
2023/06/17 14:28:51;;;;;;;;;;;;;;;;;;137557;1272;22545;-83
2023/06/17 14:31:54;;;;;;;;;;;;;;;;;;137601;1271;22523;-83
2023/06/17 14:34:56;;;;;;;;;;;;;;;;;;137670;1271;22548;-86
2023/06/17 14:37:59;;;;;;;;;;;;;;;;;;137706;1272;22521;-85
2023/06/17 14:41:01;;;;;;;;;;;;;;;;;;137473;1271;22492;-85
2023/06/17 14:44:07;;;;;;;;;;;;;;;;;;137593;1271;22858;-85
2023/06/17 14:47:10;;;;;;;;;;;;;;;;;;137686;1271;22467;-85
2023/06/17 14:50:12;;;;;;;;;;;;;;;;;;137526;1271;22484;-85
2023/06/17 14:53:15;;;;;;;;;;;;;;;;;;137732;1272;22337;-86
2023/06/17 14:56:17;;;;;;;;;;;;;;;;;;137750;1272;22319;-85
2023/06/17 14:59:20;;;;;;;;;;;;;;;;;;137674;1271;22503;-85
2023/06/17 15:02:22;;;;;;;;;;;;;;;;;;137622;1271;22519;-86
2023/06/17 15:05:26;;;;;;;;;;;;;;;;;;137732;1271;22494;-85
2023/06/17 15:08:28;;;;;;;;;;;;;;;;;;137757;1272;22229;-84
2023/06/17 15:11:31;;;;;;;;;;;;;;;;;;137606;1271;22560;-88
2023/06/17 15:14:35;;;;;;;;;;;;;;;;;;137487;1271;22492;-87
2023/06/17 15:17:37;;;;;;;;;;;;;;;;;;137590;1271;22910;-87
2023/06/17 15:20:40;;;;;;;;;;;;;;;;;;137578;1272;22556;-86
2023/06/17 15:23:44;;;;;;;;;;;;;;;;;;137611;1272;22769;-85
2023/06/17 15:26:46;;;;;;;;;;;;;;;;;;137366;1271;22487;-85
2023/06/17 15:29:49;;;;;;;;;;;;;;;;;;137644;1271;22547;-87
2023/06/17 15:32:51;;;;;;;;;;;;;;;;;;137300;1271;22514;-85
2023/06/17 15:35:54;;;;;;;;;;;;;;;;;;137379;1271;22534;-85
2023/06/17 15:38:56;;;;;;;;;;;;;;;;;;137358;1271;22575;-84
2023/06/17 15:42:01;;;;;;;;;;;;;;;;;;137562;1272;22782;-84
2023/06/17 15:45:04;;;;;;;;;;;;;;;;;;137675;1271;22521;-85
2023/06/17 15:48:06;;;;;;;;;;;;;;;;;;137303;1271;22530;-85
2023/06/17 15:51:09;;;;;;;;;;;;;;;;;;137081;1271;22554;-85
2023/06/17 15:54:11;;;;;;;;;;;;;;;;;;137646;1272;22547;-86
2023/06/17 15:57:15;;;;;;;;;;;;;;;;;;137722;1271;22314;-85
2023/06/17 16:00:17;;;;;;;;;;;;;;;;;;137369;1272;22513;-85
2023/06/17 16:03:22;;;;;;;;;;;;;;;;;;137534;1272;22972;-85
2023/06/17 16:06:24;;;;;;;;;;;;;;;;;;137540;1271;23051;-85
2023/06/17 16:09:27;;;;;;;;;;;;;;;;;;137566;1272;22515;-84
2023/06/17 16:12:29;;;;;;;;;;;;;;;;;;137691;1256;22398;-85
2023/06/17 16:15:32;;;;;;;;;;;;;;;;;;137691;1271;22462;-85
2023/06/17 16:18:35;;;;;;;;;;;;;;;;;;137610;1272;22542;-85
2023/06/17 16:21:38;;;;;;;;;;;;;;;;;;137657;1272;22314;-84
2023/06/17 16:24:41;;;;;;;;;;;;;;;;;;137700;1271;22276;-86
2023/06/17 16:27:44;;;;;;;;;;;;;;;;;;137663;1271;22393;-85
2023/06/17 16:30:46;;;;;;;;;;;;;;;;;;137675;1272;22291;-86
2023/06/17 16:33:50;;;;;;;;;;;;;;;;;;137700;1271;22302;-85
2023/06/17 16:36:56;;;;;;;;;;;;;;;;;;137666;1272;22287;-85
2023/06/17 16:39:59;;;;;;;;;;;;;;;;;;137663;1271;22313;-86
2023/06/17 16:43:01;;;;;;;;;;;;;;;;;;137673;1271;22384;-87
2023/06/17 16:46:07;;;;;;;;;;;;;;;;;;137424;1272;22486;-86
2023/06/17 16:49:12;;;;;;;;;;;;;;;;;;137306;1271;22527;-85
2023/06/17 16:52:14;;;;;;;;;;;;;;;;;;137464;1271;22531;-86
2023/06/17 16:55:16;;;;;;;;;;;;;;;;;;137523;1272;22605;-85
2023/06/17 16:58:22;;;;;;;;;;;;;;;;;;137607;1271;22529;-86
2023/06/17 17:01:24;;;;;;;;;;;;;;;;;;137699;1272;22332;-86
2023/06/17 17:04:27;;;;;;;;;;;;;;;;;;137620;1271;22542;-85
2023/06/17 17:07:29;;;;;;;;;;;;;;;;;;137555;1271;22485;-85
2023/06/17 17:10:34;;;;;;;;;;;;;;;;;;137645;1271;22709;-85
2023/06/17 17:13:37;;;;;;;;;;;;;;;;;;137543;1271;22531;-86
2023/06/17 17:16:39;;;;;;;;;;;;;;;;;;137672;1271;22499;-86
2023/06/17 17:53:12;;;;;;;;;;;;;;;;;;133600;1305;544099;-86
2023/06/17 17:56:15;;;;;;;;;;;;;;;;;;135954;1281;22516;-85
2023/06/17 17:59:17;;;;;;;;;;;;;;;;;;136376;1285;24324;-88
2023/06/17 18:02:20;;;;;;;;;;;;;;;;;;136198;1285;22542;-85
2023/06/17 18:05:22;;;;;;;;;;;;;;;;;;135818;1283;176964;-86
2023/06/17 18:08:25;;;;;;;;;;;;;;;;;;136367;1283;22534;-86
2023/06/17 18:11:28;;;;;;;;;;;;;;;;;;136512;1282;22899;-85
2023/06/17 18:14:30;;;;;;;;;;;;;;;;;;136236;1283;23064;-84
2023/06/17 18:17:33;;;;;;;;;;;;;;;;;;136098;1282;22622;-84
2023/06/17 18:20:35;;;;;;;;;;;;;;;;;;136707;1283;22970;-85
2023/06/17 18:23:38;;;;;;;;;;;;;;;;;;136246;1283;22503;-85
2023/06/17 18:26:40;;;;;;;;;;;;;;;;;;135981;1282;23059;-84
2023/06/17 18:29:42;;;;;;;;;;;;;;;;;;136627;1282;22614;-86
2023/06/17 18:32:45;;;;;;;;;;;;;;;;;;136254;1282;22535;-86
2023/06/17 18:35:47;;;;;;;;;;;;;;;;;;136251;1283;22507;-85
2023/06/17 18:38:50;;;;;;;;;;;;;;;;;;136357;1283;22523;-87
2023/06/17 18:41:52;;;;;;;;;;;;;;;;;;136542;1283;23046;-85
2023/06/17 18:44:55;;;;;;;;;;;;;;;;;;136201;1283;22895;-85
2023/06/17 18:47:57;;;;;;;;;;;;;;;;;;136244;1283;22999;-85
2023/06/17 18:50:59;;;;;;;;;;;;;;;;;;136667;1283;22582;-85
2023/06/17 18:54:02;;;;;;;;;;;;;;;;;;137072;1275;22548;-85
2023/06/17 18:57:04;;;;;;;;;;;;;;;;;;136867;1275;22526;-88
2023/06/17 19:00:07;;;;;;;;;;;;;;;;;;137334;1275;25371;-87
2023/06/17 19:03:09;;;;;;;;;;;;;;;;;;137410;1271;22467;-86
2023/06/17 19:06:12;;;;;;;;;;;;;;;;;;137314;1271;22586;-86
2023/06/17 19:09:14;;;;;;;;;;;;;;;;;;137438;1271;22621;-86
2023/06/17 19:12:17;;;;;;;;;;;;;;;;;;137700;1271;22534;-85
2023/06/17 19:15:20;;;;;;;;;;;;;;;;;;137182;1271;22595;-85
2023/06/17 19:18:23;;;;;;;;;;;;;;;;;;137245;1263;22549;-84
2023/06/17 19:21:27;;;;;;;;;;;;;;;;;;137703;1271;22540;-85
2023/06/17 19:24:29;;;;;;;;;;;;;;;;;;137460;1271;22891;-84
2023/06/17 19:27:32;;;;;;;;;;;;;;;;;;137382;1271;22528;-84
2023/06/17 19:30:35;;;;;;;;;;;;;;;;;;137831;1271;22348;-84
2023/06/17 19:33:37;;;;;;;;;;;;;;;;;;137438;1271;22508;-84
2023/06/17 19:36:40;;;;;;;;;;;;;;;;;;137369;1271;23062;-83
2023/06/17 19:39:42;;;;;;;;;;;;;;;;;;137516;1271;22970;-85
2023/06/17 19:42:44;;;;;;;;;;;;;;;;;;137666;1271;23002;-84
2023/06/17 19:45:47;;;;;;;;;;;;;;;;;;137363;1271;22570;-84
2023/06/17 19:48:50;;;;;;;;;;;;;;;;;;137450;1271;22992;-84
2023/06/17 19:51:53;;;;;;;;;;;;;;;;;;137833;1271;23094;-83
2023/06/17 19:54:55;;;;;;;;;;;;;;;;;;137312;1271;22504;-84
2023/06/17 19:57:58;;;;;;;;;;;;;;;;;;137239;1271;22534;-84
2023/06/17 20:01:01;;;;;;;;;;;;;;;;;;137875;1271;22626;-85
2023/06/17 20:04:03;;;;;;;;;;;;;;;;;;137515;1271;22481;-84
2023/06/17 20:07:06;;;;;;;;;;;;;;;;;;137406;1271;22544;-84
2023/06/17 20:10:08;;;;;;;;;;;;;;;;;;137415;1271;22535;-84
2023/06/17 20:13:12;;;;;;;;;;;;;;;;;;137755;1271;22926;-83
2023/06/17 20:16:15;;;;;;;;;;;;;;;;;;137352;1271;22483;-83
2023/06/17 20:19:18;;;;;;;;;;;;;;;;;;137389;1271;22535;-84
2023/06/17 20:22:20;;;;;;;;;;;;;;;;;;137906;1271;22451;-84
2023/06/17 20:25:23;;;;;;;;;;;;;;;;;;137393;1271;22506;-83
2023/06/17 20:28:25;;;;;;;;;;;;;;;;;;137273;1271;22553;-83
2023/06/17 20:31:27;;;;;;;;;;;;;;;;;;137826;1271;22528;-83
2023/06/17 20:34:30;;;;;;;;;;;;;;;;;;137579;1271;22480;-82
2023/06/17 20:37:32;;;;;;;;;;;;;;;;;;137590;1271;22513;-82
2023/06/17 20:40:35;;;;;;;;;;;;;;;;;;137722;1271;22531;-83
2023/06/17 20:43:37;;;;;;;;;;;;;;;;;;137614;1271;22493;-84
2023/06/17 20:46:40;;;;;;;;;;;;;;;;;;137474;1271;22530;-83
2023/06/17 20:49:43;;;;;;;;;;;;;;;;;;137456;1271;22537;-83
2023/06/17 20:52:45;;;;;;;;;;;;;;;;;;137797;1271;22442;-83
2023/06/17 20:55:48;;;;;;;;;;;;;;;;;;137805;1271;22450;-84
2023/06/17 20:58:51;;;;;;;;;;;;;;;;;;137759;1271;22493;-83
2023/06/17 21:01:53;;;;;;;;;;;;;;;;;;137757;1271;22538;-83
2023/06/17 21:04:57;;;;;;;;;;;;;;;;;;137832;1271;22467;-82